Flight Track Log - Related Links

Times and Time Zones

All times are in EDT time to prevent confusion due to time zone crossing. See the UPS1057 flight status page for this flight to view local times or setup timezone preferences in your user account.

Time Position Orientation Groundspeed Altitude Reporting Facility
EDT Latitude Longitude Course Direction KTS MPH feet Rate Location/Type
Mon 09:29:17 PM 43.0960 -71.6140 265° West 346 398 11,400  Level FlightAware ADS-B
Mon 09:29:57 PM 43.0900 -71.7070 265° West 381 438 12,800 2,700 Climbing FlightAware ADS-B
Mon 09:30:37 PM 43.0850 -71.8070 266° West 392 451 15,000 3,035 Climbing FlightAware ADS-B
Mon 09:31:22 PM 43.0790 -71.9230 266° West 406 467 17,100 2,541 Climbing FlightAware ADS-B
Mon 09:32:02 PM 43.0730 -72.0220 265° West 421 484 18,600 2,329 Climbing FlightAware ADS-B
Mon 09:32:47 PM 43.0660 -72.1460 266° West 435 501 20,400 2,329 Climbing FlightAware ADS-B
Mon 09:33:27 PM 43.0480 -72.2510 257° West 445 512 21,900 2,329 Climbing FlightAware ADS-B
Mon 09:34:12 PM 43.0100 -72.3740 247° West 454 522 23,700 2,160 Climbing FlightAware ADS-B
Mon 09:34:42 PM 42.9870 -72.4460 246° West 459 528 24,600 1,875 Climbing FlightAware ADS-B
Mon 09:35:32 PM 42.9440 -72.5870 247° West 471 542 26,200 2,021 Climbing FlightAware ADS-B
Mon 09:36:17 PM 42.9080 -72.7040 247° West 468 539 27,800 2,329 Climbing FlightAware ADS-B
Mon 09:36:57 PM 42.8740 -72.8150 247° West 461 531 29,500 2,329 Climbing FlightAware ADS-B
Mon 09:37:42 PM 42.8360 -72.9370 247° West 455 524 31,100 2,047 Climbing FlightAware ADS-B
Mon 09:38:22 PM 42.8040 -73.0400 247° West 451 519 32,400 1,800 Climbing FlightAware ADS-B
Mon 09:39:02 PM 42.7700 -73.1460 246° West 448 516 33,500 1,129 Climbing FlightAware ADS-B
Mon 09:39:47 PM 42.7340 -73.2630 247° West 450 518 34,000 353 Climbing FlightAware ADS-B
Mon 09:40:27 PM 42.7010 -73.3640 246° West 448 516 34,000  Level FlightAware ADS-B
Mon 09:41:07 PM 42.6690 -73.4700 248° West 445 512 34,000  Level FlightAware ADS-B
Mon 09:41:52 PM 42.6340 -73.5800 247° West 443 510 34,000  Level FlightAware ADS-B
Mon 09:42:32 PM 42.6010 -73.6800 246° West 443 510 34,000  Level FlightAware ADS-B
Mon 09:43:12 PM 42.5730 -73.7670 246° West 443 510 34,000  Level FlightAware ADS-B
Mon 09:43:57 PM 42.5310 -73.8990 247° West 444 511 34,000  Level FlightAware ADS-B
Mon 09:44:42 PM 42.4960 -74.0100 247° West 445 512 34,000  Level FlightAware ADS-B
Mon 09:45:22 PM 42.4670 -74.0970 246° West 445 512 34,000  Level FlightAware ADS-B
Mon 09:46:02 PM 42.4390 -74.1830 246° West 445 512 34,000  Level FlightAware ADS-B
Mon 09:47:27 PM 42.3620 -74.4190 246° West 449 517 34,000  Level FlightAware ADS-B
Mon 09:48:07 PM 42.3330 -74.5070 246° West 449 517 34,000  Level FlightAware ADS-B
Mon 09:48:52 PM 42.2830 -74.6590 246° West 448 516 34,000  Level FlightAware ADS-B
Mon 09:49:35 PM 42.2457 -74.7719 246° West 449 517 34,000  Level FlightAware ADS-B
Mon 09:50:13 PM 42.2126 -74.8718 246° West 452 520 34,000  Level FlightAware ADS-B
Mon 09:50:59 PM 42.1729 -74.9902 246° West 453 521 34,000  Level FlightAware ADS-B
Mon 09:51:32 PM 42.1450 -75.0719 245° Southwest 453 521 34,000  Level FlightAware ADS-B
Mon 09:52:04 PM 42.1180 -75.1525 246° West 444 511 34,000  Level FlightAware ADS-B
Mon 09:52:35 PM 42.0917 -75.2304 246° West 445 512 34,000  Level FlightAware ADS-B
Mon 09:53:15 PM 42.0559 -75.3336 245° Southwest 447 514 34,000  Level FlightAware ADS-B
Mon 09:53:47 PM 42.0280 -75.4020 241° Southwest 450 518 34,000  Level FlightAware ADS-B
Mon 09:54:05 PM 42.0060 -75.4537 240° Southwest 451 519 34,000  Level FlightAware ADS-B
Mon 09:54:22 PM 41.9891 -75.4955 241° Southwest 452 520 34,000  Level FlightAware ADS-B
Mon 09:54:35 PM 41.9785 -75.5286 247° West 450 518 34,000  Level FlightAware ADS-B
Mon 09:56:02 PM 41.9320 -75.7390 254° West 449 517 34,000  Level FlightAware ADS-B
Mon 09:56:42 PM 41.9060 -75.8540 253° West 449 517 34,000  Level FlightAware ADS-B
Mon 09:57:32 PM 41.8760 -75.9880 253° West 452 520 34,000  Level FlightAware ADS-B
Mon 09:58:12 PM 41.8520 -76.0950 253° West 451 519 34,000  Level FlightAware ADS-B
Mon 09:58:35 PM 41.8343 -76.1697 252° West 452 520 34,000  Level FlightAware ADS-B
Mon 09:59:11 PM 41.8124 -76.2660 253° West 453 521 34,000  Level FlightAware ADS-B
Mon 09:59:43 PM 41.7929 -76.3518 253° West 454 522 34,000  Level FlightAware ADS-B
Mon 10:00:19 PM 41.7706 -76.4484 253° West 454 522 34,000  Level FlightAware ADS-B
Mon 10:00:49 PM 41.7516 -76.5317 253° West 454 522 34,000  Level FlightAware ADS-B
Mon 10:01:20 PM 41.7323 -76.6146 253° West 453 521 34,000  Level FlightAware ADS-B
Mon 10:01:57 PM 41.7094 -76.7133 253° West 452 520 34,000  Level FlightAware ADS-B
Mon 10:02:27 PM 41.6940 -76.7770 252° West 451 519 34,000  Level FlightAware ADS-B
Mon 10:03:08 PM 41.6648 -76.9022 253° West 452 520 34,000  Level FlightAware ADS-B
Mon 10:03:42 PM 41.6480 -76.9710 252° West 451 519 34,000  Level FlightAware ADS-B
Mon 10:04:32 PM 41.6160 -77.1070 253° West 452 520 34,000  Level FlightAware ADS-B
Mon 10:05:12 PM 41.5900 -77.2170 252° West 454 522 34,000  Level FlightAware ADS-B
Mon 10:05:52 PM 41.5650 -77.3230 253° West 454 522 34,000  Level FlightAware ADS-B
Mon 10:06:37 PM 41.5350 -77.4430 252° West 455 524 34,000  Level FlightAware ADS-B
Mon 10:07:17 PM 41.5100 -77.5500 253° West 453 521 34,000  Level FlightAware ADS-B
Mon 10:08:02 PM 41.4810 -77.6700 252° West 455 524 34,000  Level FlightAware ADS-B
Mon 10:08:42 PM 41.4550 -77.7770 252° West 456 525 34,000  Level FlightAware ADS-B
Mon 10:09:27 PM 41.4270 -77.8890 252° West 457 526 34,000  Level FlightAware ADS-B
Mon 10:10:07 PM 41.3980 -78.0070 252° West 457 526 34,000  Level FlightAware ADS-B
Mon 10:10:47 PM 41.3720 -78.1110 252° West 457 526 34,000  Level FlightAware ADS-B
Mon 10:11:32 PM 41.3420 -78.2330 252° West 457 526 34,000  Level FlightAware ADS-B
Mon 10:12:12 PM 41.3160 -78.3350 251° West 457 526 34,000  Level FlightAware ADS-B
Mon 10:12:52 PM 41.2890 -78.4440 252° West 457 526 34,000  Level FlightAware ADS-B
Mon 10:13:37 PM 41.2610 -78.5560 252° West 457 526 34,000  Level FlightAware ADS-B
Mon 10:14:17 PM 41.2320 -78.6700 251° West 457 526 34,000  Level FlightAware ADS-B
Mon 10:14:57 PM 41.2040 -78.7770 251° West 462 532 34,000  Level FlightAware ADS-B
Mon 10:15:42 PM 41.1740 -78.8980 252° West 464 534 34,000  Level FlightAware ADS-B
Mon 10:16:22 PM 41.1480 -78.9980 251° West 463 533 34,000  Level FlightAware ADS-B
Mon 10:17:07 PM 41.1140 -79.1290 251° West 459 528 34,000  Level FlightAware ADS-B
Mon 10:17:47 PM 41.0870 -79.2300 251° West 462 532 34,000  Level FlightAware ADS-B
Mon 10:18:32 PM 41.0580 -79.3420 251° West 463 533 34,000  Level FlightAware ADS-B
Mon 10:19:12 PM 41.0280 -79.4580 251° West 466 536 34,000  Level FlightAware ADS-B
Mon 10:19:52 PM 41.0000 -79.5660 251° West 469 540 34,000  Level FlightAware ADS-B
Mon 10:20:37 PM 40.9680 -79.6850 250° West 469 540 34,000  Level FlightAware ADS-B
Mon 10:21:17 PM 40.9400 -79.7900 251° West 469 540 34,000  Level FlightAware ADS-B
Mon 10:22:02 PM 40.9070 -79.9120 250° West 469 540 34,000  Level FlightAware ADS-B
Mon 10:22:42 PM 40.8760 -80.0290 251° West 470 541 34,000  Level FlightAware ADS-B
Mon 10:23:27 PM 40.8460 -80.1400 250° West 471 542 34,000  Level FlightAware ADS-B
Mon 10:24:07 PM 40.8150 -80.2530 250° West 470 541 34,000  Level FlightAware ADS-B
Mon 10:24:47 PM 40.7840 -80.3660 250° West 469 540 34,000  Level FlightAware ADS-B
Mon 10:25:32 PM 40.7510 -80.4880 250° West 471 542 34,000  Level FlightAware ADS-B
Mon 10:26:12 PM 40.7190 -80.6070 250° West 473 544 34,000  Level FlightAware ADS-B
Mon 10:26:57 PM 40.6860 -80.7260 250° West 473 544 34,000  Level FlightAware ADS-B
Mon 10:27:37 PM 40.6560 -80.8340 250° West 473 544 34,000  Level FlightAware ADS-B
Mon 10:28:17 PM 40.6260 -80.9420 250° West 471 542 34,000  Level FlightAware ADS-B
Mon 10:29:02 PM 40.5890 -81.0650 248° West 471 542 34,000  Level FlightAware ADS-B
Mon 10:29:42 PM 40.5480 -81.1660 242° Southwest 470 541 34,000  Level FlightAware ADS-B
Mon 10:30:27 PM 40.5030 -81.2740 241° Southwest 472 543 34,000  Level FlightAware ADS-B
Mon 10:31:07 PM 40.4600 -81.3800 242° Southwest 473 544 34,000  Level FlightAware ADS-B
Mon 10:31:47 PM 40.4190 -81.4790 241° Southwest 474 545 34,000  Level FlightAware ADS-B
Mon 10:32:32 PM 40.3710 -81.5950 242° Southwest 474 545 34,000  Level FlightAware ADS-B
Mon 10:33:12 PM 40.3290 -81.6960 241° Southwest 475 547 34,000  Level FlightAware ADS-B
Mon 10:33:57 PM 40.2820 -81.8080 241° Southwest 478 550 34,000  Level FlightAware ADS-B
Mon 10:34:37 PM 40.2380 -81.9150 242° Southwest 479 551 34,000  Level FlightAware ADS-B
Mon 10:35:17 PM 40.1970 -82.0120 241° Southwest 481 554 34,000  Level FlightAware ADS-B
Mon 10:36:02 PM 40.1490 -82.1260 241° Southwest 481 554 34,000  Level FlightAware ADS-B
Mon 10:36:42 PM 40.1050 -82.2310 241° Southwest 480 552 34,000  Level FlightAware ADS-B
Mon 10:37:22 PM 40.0630 -82.3290 241° Southwest 479 551 34,000  Level FlightAware ADS-B
Mon 10:38:07 PM 40.0130 -82.4450 241° Southwest 478 550 34,000  Level FlightAware ADS-B
Mon 10:38:47 PM 39.9690 -82.5420 239° Southwest 480 552 34,000  Level FlightAware ADS-B
Mon 10:39:32 PM 39.9150 -82.6590 239° Southwest 483 556 34,000  Level FlightAware ADS-B
Mon 10:40:12 PM 39.8720 -82.7510 239° Southwest 485 558 34,000  Level FlightAware ADS-B
Mon 10:40:52 PM 39.8240 -82.8560 239° Southwest 485 558 34,000  Level FlightAware ADS-B
Mon 10:41:37 PM 39.7730 -82.9660 239° Southwest 484 557 34,000 -71 Level FlightAware ADS-B
Mon 10:42:17 PM 39.7270 -83.0660 239° Southwest 480 552 33,900 -1,200 Descending FlightAware ADS-B
Mon 10:42:57 PM 39.6820 -83.1620 239° Southwest 482 555 32,400 -2,471 Descending FlightAware ADS-B
Mon 10:43:42 PM 39.6280 -83.2790 239° Southwest 486 559 30,400 -2,600 Descending FlightAware ADS-B
Mon 10:44:27 PM 39.5750 -83.3890 238° Southwest 494 568 28,500 -1,694 Descending FlightAware ADS-B
Mon 10:45:07 PM 39.5290 -83.4910 240° Southwest 496 571 28,000 -375 Descending FlightAware ADS-B
Mon 10:45:47 PM 39.4840 -83.5950 241° Southwest 500 575 28,000 -71 Level FlightAware ADS-B
Mon 10:46:32 PM 39.4350 -83.7170 243° Southwest 502 578 27,900 -918 Descending FlightAware ADS-B
Mon 10:47:12 PM 39.3910 -83.8200 241° Southwest 505 581 26,700 -1,950 Descending FlightAware ADS-B
Mon 10:47:52 PM 39.3450 -83.9290 241° Southwest 497 572 25,300 -1,765 Descending FlightAware ADS-B
Mon 10:48:37 PM 39.2980 -84.0410 242° Southwest 482 555 24,200 -780 Descending FlightAware ADS-B
Mon 10:49:32 PM 39.2430 -84.1720 242° Southwest 481 554 24,000 -126 Descending FlightAware ADS-B
Mon 10:50:12 PM 39.2060 -84.2570 241° Southwest 481 554 24,000  Level FlightAware ADS-B
Mon 10:50:52 PM 39.1690 -84.3420 241° Southwest 481 554 24,000  Level FlightAware ADS-B
Mon 10:51:32 PM 39.1330 -84.4280 242° Southwest 481 554 24,000  Level FlightAware ADS-B
Mon 10:52:22 PM 39.0870 -84.5340 241° Southwest 481 554 24,000  Level FlightAware ADS-B
Mon 10:52:52 PM 39.0590 -84.5980 241° Southwest 481 554 24,000 -2,229 Level FlightAware ADS-B
Mon 10:58:12 PM 38.5270 -85.1910 221° Southwest 400 460 11,000 -2,333 Descending FlightAware ADS-B
Mon 10:58:52 PM 38.4870 -85.2670 236° Southwest 396 456 10,000 -750 Descending FlightAware ADS-B
Mon 10:59:32 PM 38.4460 -85.3440 236° Southwest 393 452 10,000 -86 Level FlightAware ADS-B
Mon 11:00:02 PM 38.4160 -85.3990 235° Southwest 388 447 9,900  Descending FlightAware ADS-B
Mon 11:00:22 PM 38.3990 -85.4320 237° Southwest 328 377 10,000 -545 Climbing FlightAware ADS-B
Mon 11:00:57 PM 38.3700 -85.4860 236° Southwest 312 359 9,400 -1,292 Descending FlightAware ADS-B
Mon 11:01:27 PM 38.3450 -85.5350 237° Southwest 307 353 8,600 -1,636 Descending FlightAware ADS-B
Mon 11:01:52 PM 38.3260 -85.5710 236° Southwest 306 352 7,900 -1,418 Descending FlightAware ADS-B
Mon 11:02:22 PM 38.3020 -85.6150 235° Southwest 298 343 7,300 -1,418 Descending FlightAware ADS-B
Mon 11:02:47 PM 38.2820 -85.6530 236° Southwest 295 339 6,600 -1,309 Descending FlightAware ADS-B
Mon 11:03:17 PM 38.2600 -85.6960 237° Southwest 286 329 6,100 -600 Descending FlightAware ADS-B
Mon 11:03:47 PM 38.2380 -85.7390 237° Southwest 286 329 6,000 -109 Descending FlightAware ADS-B
Mon 11:04:12 PM 38.2200 -85.7720 235° Southwest 288 331 6,000  Level FlightAware ADS-B
Mon 11:04:42 PM 38.1970 -85.8170 237° Southwest 289 333 6,000  Level FlightAware ADS-B
Mon 11:05:12 PM 38.1760 -85.8580 237° Southwest 289 333 6,000  Level FlightAware ADS-B
Mon 11:05:22 PM 38.1660 -85.8690 221° Southwest 285 328 6,000  Level FlightAware ADS-B
Mon 11:05:37 PM 38.1470 -85.8790 202° Southwest 269 310 6,000 200 Level FlightAware ADS-B
Mon 11:05:52 PM 38.1300 -85.8780 177° South 249 287 6,100 -267 Climbing FlightAware ADS-B
Mon 11:06:22 PM 38.0990 -85.8660 163° South 228 262 5,800 -873 Descending FlightAware ADS-B
Mon 11:06:47 PM 38.0750 -85.8490 151° Southeast 225 259 5,300 -764 Descending FlightAware ADS-B
Mon 11:07:17 PM 38.0490 -85.8290 149° Southeast 219 252 5,100 -327 Descending FlightAware ADS-B
Mon 11:07:42 PM 38.0270 -85.8130 150° Southeast 220 253 5,000 -109 Descending FlightAware ADS-B
Mon 11:08:12 PM 38.0030 -85.7910 144° Southeast 220 253 5,000  Level FlightAware ADS-B
Mon 11:08:37 PM 37.9830 -85.7700 140° Southeast 221 254 5,000  Level FlightAware ADS-B
Mon 11:09:07 PM 37.9540 -85.7540 156° South 231 266 5,000  Level FlightAware ADS-B
Mon 11:09:37 PM 37.9220 -85.7470 170° South 230 265 5,000 -133 Level FlightAware ADS-B
Mon 11:09:52 PM 37.9080 -85.7410 161° South 222 255 4,900 -720 Descending FlightAware ADS-B
Mon 11:10:02 PM 37.9000 -85.7320 138° Southeast 217 250 4,700 -1,440 Descending FlightAware ADS-B
Mon 11:10:17 PM 37.8960 -85.7160 108° East 209 241 4,300 -933 Descending FlightAware ADS-B
Mon 11:10:47 PM 37.9080 -85.6850 64° Northeast 189 217 4,000 -400 Descending FlightAware ADS-B
Mon 11:11:02 PM 37.9200 -85.6810 15° North 181 208 4,000  Level FlightAware ADS-B
Mon 11:11:27 PM 37.9400 -85.6760 11° North 179 206 4,000  Level FlightAware ADS-B
Mon 11:12:12 PM 37.9780 -85.6800 355° North 188 216 4,000 -424 Level FlightAware ADS-B
Mon 11:12:52 PM 38.0110 -85.6910 345° North 183 211 3,400 -982 Descending FlightAware ADS-B
Mon 11:13:07 PM 38.0230 -85.6950 345° North 181 208 3,100 -900 Descending FlightAware ADS-B
Mon 11:13:32 PM 38.0440 -85.7020 345° North 168 193 2,800 -873 Descending FlightAware ADS-B
Mon 11:14:02 PM 38.0660 -85.7090 346° North 165 190 2,300 -900 Descending FlightAware ADS-B
Mon 11:14:32 PM 38.0870 -85.7160 345° North 133 153 1,900 -655 Descending FlightAware ADS-B
Mon 11:14:57 PM 38.1010 -85.7200 347° North 128 147 1,700 -655 Descending FlightAware ADS-B
Mon 11:15:27 PM 38.1170 -85.7260 344° North 127 146 1,300 -764 Descending FlightAware ADS-B
Mon 11:15:52 PM 38.1320 -85.7310 345° North 125 144 1,000 -655 Descending FlightAware ADS-B
Mon 11:16:22 PM 38.1490 -85.7360 347° North 127 146 700 -429 Descending FlightAware ADS-B
Mon 11:17:02 PM 38.1710 -85.7440 344° North 128 147 500 -300 Descending FlightAware ADS-B

Login

Don't have an account? Register now (free) for customized features, flight alerts, and more!